createdAt,value
2022-12-22T00:02:45.855Z,53.47
2022-12-22T00:05:41.139Z,53.62
2022-12-22T00:08:27.887Z,53.32
2022-12-22T00:11:15.100Z,53.45
2022-12-22T00:14:02.848Z,53.59
2022-12-22T00:16:52.972Z,53.85
2022-12-22T00:19:38.885Z,53.54
2022-12-22T00:22:41.941Z,53.74
2022-12-22T00:25:33.201Z,53.41
2022-12-22T00:28:18.466Z,53.54
2022-12-22T00:31:05.358Z,53.52
2022-12-22T00:33:51.372Z,53.52
2022-12-22T00:36:39.204Z,53.76
2022-12-22T00:39:32.411Z,53.64
2022-12-22T00:42:17.647Z,53.75
2022-12-22T00:45:02.934Z,53.70
2022-12-22T00:47:49.643Z,53.80
2022-12-22T00:50:34.996Z,53.95
2022-12-22T00:53:21.646Z,54.03
2022-12-22T00:56:06.912Z,54.29
2022-12-22T00:58:53.337Z,54.28
2022-12-22T01:01:38.532Z,54.39
2022-12-22T01:04:24.075Z,54.45
2022-12-22T01:07:09.328Z,54.48
2022-12-22T01:09:54.414Z,54.71
2022-12-22T01:12:43.424Z,55.06
2022-12-22T01:15:35.947Z,55.04
2022-12-22T01:18:21.601Z,55.23
2022-12-22T01:21:07.043Z,55.56
2022-12-22T01:23:52.230Z,55.44
2022-12-22T01:26:38.480Z,55.68
2022-12-22T01:29:24.381Z,55.82
2022-12-22T01:32:10.108Z,55.74
2022-12-22T01:34:55.768Z,55.66
2022-12-22T01:37:41.031Z,56.01
2022-12-22T01:40:35.373Z,56.21
2022-12-22T01:43:21.153Z,56.23
2022-12-22T01:46:06.541Z,56.37
2022-12-22T01:48:52.171Z,56.30
2022-12-22T01:51:46.490Z,56.51
2022-12-22T01:54:33.637Z,56.29
2022-12-22T01:57:19.542Z,56.41
2022-12-22T02:00:05.075Z,56.38
2022-12-22T02:02:57.387Z,56.51
2022-12-22T02:05:42.641Z,56.50
2022-12-22T02:08:44.637Z,56.77
2022-12-22T02:11:53.140Z,56.95
2022-12-22T02:15:03.914Z,56.91
2022-12-22T02:18:13.482Z,57.25
2022-12-22T02:21:06.742Z,56.98
2022-12-22T02:24:08.317Z,57.09
2022-12-22T02:27:01.106Z,57.08
2022-12-22T02:29:51.973Z,56.77
2022-12-22T02:32:37.132Z,56.68
2022-12-22T02:35:34.403Z,56.94
2022-12-22T02:38:28.769Z,56.83
2022-12-22T02:41:42.631Z,56.59
2022-12-22T02:44:41.850Z,56.41
2022-12-22T02:47:42.409Z,56.47
2022-12-22T02:50:50.162Z,56.43
2022-12-22T02:53:37.734Z,56.16
2022-12-22T02:56:28.912Z,56.13
2022-12-22T02:59:14.741Z,56.09
2022-12-22T03:02:03.722Z,56.23
2022-12-22T03:04:49.161Z,56.09
2022-12-22T03:07:34.296Z,56.04
2022-12-22T03:10:19.573Z,56.12
2022-12-22T03:13:04.996Z,56.23
2022-12-22T03:15:50.373Z,56.25
2022-12-22T03:18:35.904Z,56.39
2022-12-22T03:21:21.344Z,56.31
2022-12-22T03:24:06.763Z,56.28
2022-12-22T03:26:33.588Z,56.32
2022-12-22T03:29:00.386Z,56.33
2022-12-22T03:31:27.646Z,56.32
2022-12-22T03:33:54.539Z,56.07
2022-12-22T03:36:23.517Z,56.12
2022-12-22T03:38:50.331Z,56.21
2022-12-22T03:41:35.949Z,56.34
2022-12-22T03:44:21.396Z,56.31
2022-12-22T03:46:48.170Z,56.47
2022-12-22T03:49:15.104Z,56.21
2022-12-22T03:51:48.412Z,56.36
2022-12-22T03:54:18.535Z,56.26
2022-12-22T03:56:46.286Z,56.27
2022-12-22T03:59:13.465Z,55.97
2022-12-22T04:01:45.653Z,56.28
2022-12-22T04:04:14.605Z,56.31
2022-12-22T04:06:41.892Z,56.00
2022-12-22T04:09:08.975Z,56.08
2022-12-22T04:11:54.347Z,56.12
2022-12-22T04:14:21.710Z,56.15
2022-12-22T04:16:49.226Z,56.32
2022-12-22T04:19:16.414Z,56.23
2022-12-22T04:21:44.065Z,56.48
2022-12-22T04:24:14.517Z,56.36
2022-12-22T04:26:41.433Z,56.48
2022-12-22T04:29:08.285Z,56.60
2022-12-22T04:31:35.411Z,56.50
2022-12-22T04:34:02.273Z,56.66
2022-12-22T04:36:29.031Z,56.47
2022-12-22T04:38:56.107Z,56.59
2022-12-22T04:41:22.876Z,56.50
2022-12-22T04:43:49.654Z,56.44
2022-12-22T04:46:16.539Z,56.51
2022-12-22T04:48:43.415Z,56.54
2022-12-22T04:51:10.262Z,56.41
2022-12-22T04:53:37.103Z,56.49
2022-12-22T04:56:07.324Z,56.31
2022-12-22T04:58:34.612Z,56.51
2022-12-22T05:01:16.653Z,56.57
2022-12-22T05:03:43.827Z,56.29
2022-12-22T05:06:11.576Z,56.33
2022-12-22T05:08:38.691Z,56.34
2022-12-22T05:11:06.705Z,56.94
2022-12-22T05:13:33.565Z,56.64
2022-12-22T05:16:15.000Z,56.85
2022-12-22T05:18:44.055Z,56.87
2022-12-22T05:21:17.726Z,57.03
2022-12-22T05:23:45.470Z,56.93
2022-12-22T05:26:14.515Z,56.87
2022-12-22T05:28:42.965Z,56.84
2022-12-22T05:31:15.706Z,56.80
2022-12-22T05:33:42.707Z,56.80
2022-12-22T05:36:09.592Z,56.71
2022-12-22T05:38:36.634Z,56.44
2022-12-22T05:41:04.761Z,56.68
2022-12-22T05:43:35.550Z,56.61
2022-12-22T05:46:09.673Z,56.43
2022-12-22T05:48:39.003Z,56.34
2022-12-22T05:51:10.149Z,56.25
2022-12-22T05:53:37.782Z,56.30
2022-12-22T05:56:05.094Z,56.11
2022-12-22T05:58:32.780Z,56.32
2022-12-22T06:01:01.094Z,56.23
2022-12-22T06:03:29.590Z,56.12
2022-12-22T06:05:57.568Z,55.95
2022-12-22T06:08:24.802Z,55.79
2022-12-22T06:10:54.899Z,55.74
2022-12-22T06:13:22.991Z,55.89
2022-12-22T06:15:50.279Z,55.79
2022-12-22T06:18:17.185Z,55.71
2022-12-22T06:20:46.960Z,55.53
2022-12-22T06:23:13.817Z,55.50
2022-12-22T06:25:40.648Z,55.43
2022-12-22T06:28:07.458Z,55.61
2022-12-22T06:30:34.350Z,55.09
2022-12-22T06:33:01.561Z,55.51
2022-12-22T06:35:28.665Z,55.42
2022-12-22T06:37:55.490Z,55.49
2022-12-22T06:40:22.247Z,55.42
2022-12-22T06:43:09.110Z,55.52
2022-12-22T06:45:42.519Z,55.49
2022-12-22T06:48:11.301Z,55.37
2022-12-22T06:50:38.326Z,55.25
2022-12-22T06:53:05.541Z,55.36
2022-12-22T06:55:32.350Z,55.55
2022-12-22T06:57:59.384Z,55.31
2022-12-22T07:00:26.149Z,55.42
2022-12-22T07:02:53.433Z,55.32
2022-12-22T07:05:20.525Z,54.98
2022-12-22T07:07:47.501Z,54.92
2022-12-22T07:10:14.347Z,54.87
2022-12-22T07:12:41.363Z,54.84
2022-12-22T07:15:09.518Z,54.69
2022-12-22T07:17:36.374Z,54.77
2022-12-22T07:20:03.413Z,54.51
2022-12-22T07:22:31.156Z,54.31
2022-12-22T07:24:58.628Z,54.31
2022-12-22T07:27:25.633Z,54.36
2022-12-22T07:29:52.430Z,54.26
2022-12-22T07:32:19.263Z,53.94
2022-12-22T07:34:46.214Z,54.07
2022-12-22T07:37:13.692Z,54.07
2022-12-22T07:39:40.734Z,53.88
2022-12-22T07:42:25.941Z,54.10
2022-12-22T07:44:52.737Z,53.86
2022-12-22T07:47:19.538Z,53.80
2022-12-22T07:50:04.590Z,53.79
2022-12-22T07:52:31.340Z,53.91
2022-12-22T07:54:58.119Z,53.80
2022-12-22T07:57:26.142Z,53.71
2022-12-22T07:59:53.628Z,53.65
2022-12-22T08:02:20.604Z,53.53
2022-12-22T08:04:47.684Z,53.25
2022-12-22T08:07:14.821Z,53.58
2022-12-22T08:09:41.639Z,53.40
2022-12-22T08:12:08.437Z,53.69
2022-12-22T08:14:35.250Z,53.59
2022-12-22T08:17:02.063Z,53.73
2022-12-22T08:19:28.896Z,53.73
2022-12-22T08:21:55.667Z,53.91
2022-12-22T08:24:22.507Z,53.98
2022-12-22T08:26:53.226Z,53.87
2022-12-22T08:29:42.221Z,53.73
2022-12-22T08:32:10.986Z,53.60
2022-12-22T08:34:37.861Z,53.81
2022-12-22T08:37:07.587Z,53.32
2022-12-22T08:39:39.234Z,53.19
2022-12-22T08:42:09.570Z,53.09
2022-12-22T08:44:39.062Z,53.13
2022-12-22T08:47:08.898Z,52.94
2022-12-22T08:49:38.353Z,52.94
2022-12-22T08:52:05.301Z,53.03
2022-12-22T08:54:33.229Z,53.05
2022-12-22T08:57:00.022Z,52.87
2022-12-22T08:59:26.797Z,52.73
2022-12-22T09:01:53.702Z,52.64
2022-12-22T09:04:22.444Z,52.41
2022-12-22T09:06:52.931Z,52.25
2022-12-22T09:09:21.672Z,52.29
2022-12-22T09:11:48.783Z,52.54
2022-12-22T09:14:15.904Z,52.46
2022-12-22T09:16:42.751Z,52.48
2022-12-22T09:19:10.079Z,52.43
2022-12-22T09:21:36.866Z,52.59
2022-12-22T09:24:09.786Z,53.01
2022-12-22T09:26:36.669Z,52.76
2022-12-22T09:29:04.205Z,53.05
2022-12-22T09:31:31.212Z,52.99
2022-12-22T09:33:58.593Z,53.03
2022-12-22T09:36:30.362Z,53.28
2022-12-22T09:38:57.986Z,53.20
2022-12-22T09:41:34.642Z,53.01
2022-12-22T09:44:32.549Z,53.37
2022-12-22T09:47:16.293Z,53.47
2022-12-22T09:49:43.100Z,53.45
2022-12-22T09:52:41.435Z,53.68
2022-12-22T09:55:41.223Z,53.89
2022-12-22T09:58:29.152Z,53.80
2022-12-22T10:01:14.353Z,54.06
2022-12-22T10:04:00.945Z,53.95
2022-12-22T10:07:02.205Z,54.05
2022-12-22T10:12:24.286Z,54.31
2022-12-22T10:14:53.873Z,54.08
2022-12-22T10:17:25.678Z,54.25
2022-12-22T10:20:08.130Z,54.42
2022-12-22T10:22:58.939Z,54.59
2022-12-22T10:25:52.565Z,54.41
2022-12-22T10:28:24.605Z,54.49
2022-12-22T10:31:16.012Z,54.63
2022-12-22T10:33:47.518Z,54.59
2022-12-22T10:36:24.094Z,54.71
2022-12-22T10:39:22.476Z,54.77
2022-12-22T10:41:52.110Z,54.80
2022-12-22T10:44:21.302Z,54.67
2022-12-22T10:47:17.880Z,54.89
2022-12-22T10:52:32.580Z,54.71
2022-12-22T10:55:39.287Z,55.03
2022-12-22T10:58:17.391Z,55.11
2022-12-22T11:00:46.637Z,55.01
2022-12-22T11:03:20.734Z,55.04
2022-12-22T11:05:51.595Z,55.25
2022-12-22T11:08:20.167Z,54.96
2022-12-22T11:11:00.335Z,55.03
2022-12-22T11:14:08.250Z,55.34
2022-12-22T11:16:53.998Z,55.17
2022-12-22T11:19:46.775Z,55.43
2022-12-22T11:22:41.649Z,55.78
2022-12-22T11:25:30.093Z,55.72
2022-12-22T11:28:38.447Z,55.80
2022-12-22T11:31:23.253Z,55.67
2022-12-22T11:34:46.680Z,55.74
2022-12-22T11:37:46.227Z,55.84
2022-12-22T11:40:35.220Z,56.19
2022-12-22T11:43:15.797Z,56.01
2022-12-22T11:46:21.615Z,56.06
2022-12-22T11:49:08.025Z,54.51
2022-12-22T11:52:02.591Z,53.78
2022-12-22T11:55:10.256Z,53.31
2022-12-22T11:58:10.734Z,52.65
2022-12-22T12:01:15.031Z,51.98
2022-12-22T12:03:54.039Z,51.67
2022-12-22T12:06:34.458Z,51.15
2022-12-22T12:09:39.929Z,51.16
2022-12-22T12:12:25.765Z,51.27
2022-12-22T12:15:30.413Z,51.32
2022-12-22T12:18:36.467Z,51.69
2022-12-22T12:21:29.596Z,51.63
2022-12-22T12:24:40.837Z,51.90
2022-12-22T12:27:33.021Z,51.86
2022-12-22T12:30:39.250Z,52.03
2022-12-22T12:33:29.813Z,52.17
2022-12-22T12:36:11.677Z,52.50
2022-12-22T12:39:14.553Z,53.02
2022-12-22T12:41:58.594Z,52.77
2022-12-22T12:44:29.897Z,53.22
2022-12-22T12:47:07.115Z,52.94
2022-12-22T12:49:33.870Z,53.01
2022-12-22T12:52:05.693Z,53.05
2022-12-22T12:54:32.333Z,53.46
2022-12-22T12:57:26.326Z,53.44
2022-12-22T12:59:59.163Z,53.92
2022-12-22T13:02:32.702Z,54.08
2022-12-22T13:05:11.968Z,54.11
2022-12-22T13:08:14.272Z,54.48
2022-12-22T13:11:10.068Z,54.81
2022-12-22T13:13:38.907Z,54.63
2022-12-22T13:16:05.598Z,54.80
2022-12-22T13:18:35.406Z,54.74
2022-12-22T13:21:42.556Z,54.93
2022-12-22T13:26:55.003Z,54.56
2022-12-22T13:29:40.003Z,54.52
2022-12-22T13:32:22.032Z,54.49
2022-12-22T13:35:41.375Z,54.43
2022-12-22T13:38:26.899Z,54.56
2022-12-22T13:40:54.032Z,54.15
2022-12-22T13:43:21.423Z,54.09
2022-12-22T13:45:51.640Z,53.91
2022-12-22T13:48:45.668Z,54.08
2022-12-22T13:51:19.079Z,54.01
2022-12-22T13:54:08.228Z,54.16
2022-12-22T13:56:41.338Z,54.02
2022-12-22T13:59:29.963Z,54.12
2022-12-22T14:02:16.135Z,54.12
2022-12-22T14:05:03.682Z,53.99
2022-12-22T14:07:30.905Z,53.66
2022-12-22T14:09:58.393Z,53.61
2022-12-22T14:12:41.991Z,53.71
2022-12-22T14:15:18.170Z,53.62
2022-12-22T14:17:52.197Z,53.32
2022-12-22T14:20:37.989Z,53.80
2022-12-22T14:23:19.647Z,53.44
2022-12-22T14:25:47.782Z,53.42
2022-12-22T14:28:27.505Z,53.65
2022-12-22T14:31:00.350Z,53.20
2022-12-22T14:33:34.898Z,53.24
2022-12-22T14:36:23.832Z,53.39
2022-12-22T14:38:59.084Z,52.62
2022-12-22T14:41:51.590Z,52.54
2022-12-22T14:44:43.572Z,52.86
2022-12-22T14:47:16.182Z,52.63
2022-12-22T14:49:51.190Z,52.49
2022-12-22T14:52:45.855Z,52.54
2022-12-22T14:55:32.959Z,52.01
2022-12-22T14:58:18.163Z,52.00
2022-12-22T15:00:48.366Z,51.92
2022-12-22T15:03:35.795Z,51.97
2022-12-22T15:06:27.456Z,51.97
2022-12-22T15:09:11.570Z,52.07
2022-12-22T15:12:03.696Z,52.00
2022-12-22T15:14:38.474Z,51.73
2022-12-22T15:17:17.789Z,51.75
2022-12-22T15:19:44.587Z,51.81
2022-12-22T15:22:12.540Z,52.21
2022-12-22T15:24:39.314Z,51.74
2022-12-22T15:27:06.081Z,51.89
2022-12-22T15:29:32.879Z,51.79
2022-12-22T15:31:59.778Z,52.06
2022-12-22T15:34:30.134Z,51.61
2022-12-22T15:36:57.036Z,51.46
2022-12-22T15:39:24.505Z,51.64
2022-12-22T15:41:51.405Z,51.77
2022-12-22T15:44:18.485Z,51.66
2022-12-22T15:46:57.068Z,51.49
2022-12-22T15:49:27.172Z,51.60
2022-12-22T15:51:59.330Z,51.62
2022-12-22T15:54:28.441Z,51.49
2022-12-22T15:56:55.856Z,51.55
2022-12-22T15:59:28.323Z,51.45
2022-12-22T16:02:01.176Z,51.45
2022-12-22T16:04:29.788Z,51.36
2022-12-22T16:06:58.094Z,51.41
2022-12-22T16:09:28.917Z,51.22
2022-12-22T16:11:56.621Z,51.55
2022-12-22T16:14:23.743Z,51.35
2022-12-22T16:16:50.846Z,51.16
2022-12-22T16:19:18.799Z,51.22
2022-12-22T16:21:49.174Z,51.11
2022-12-22T16:24:30.593Z,51.46
2022-12-22T16:26:57.965Z,51.40
2022-12-22T16:29:25.219Z,51.24
2022-12-22T16:31:52.653Z,51.35
2022-12-22T16:34:19.854Z,51.36
2022-12-22T16:36:46.688Z,51.23
2022-12-22T16:39:13.443Z,51.17
2022-12-22T16:41:40.886Z,51.19
2022-12-22T16:44:09.806Z,51.10
2022-12-22T16:46:38.940Z,51.02
2022-12-22T16:49:08.772Z,51.22
2022-12-22T16:51:40.133Z,51.27
2022-12-22T16:54:07.105Z,51.35
2022-12-22T16:56:34.772Z,51.26
2022-12-22T16:59:04.359Z,51.28
2022-12-22T17:01:43.702Z,51.46
2022-12-22T17:04:25.846Z,51.49
2022-12-22T17:06:54.992Z,51.48
2022-12-22T17:09:31.573Z,51.54
2022-12-22T17:12:01.024Z,51.44
2022-12-22T17:14:31.924Z,51.51
2022-12-22T17:17:01.463Z,51.62
2022-12-22T17:19:28.259Z,51.80
2022-12-22T17:21:56.724Z,51.91
2022-12-22T17:24:28.157Z,51.88
2022-12-22T17:27:02.511Z,52.28
2022-12-22T17:29:30.014Z,52.25
2022-12-22T17:31:57.145Z,52.16
2022-12-22T17:34:24.173Z,52.44
2022-12-22T17:36:51.374Z,52.60
2022-12-22T17:39:22.537Z,52.73
2022-12-22T17:41:56.273Z,52.39
2022-12-22T17:44:25.581Z,52.61
2022-12-22T17:46:54.896Z,52.76
2022-12-22T17:49:22.764Z,52.94
2022-12-22T17:51:50.091Z,53.05
2022-12-22T17:54:25.986Z,53.02
2022-12-22T17:56:59.387Z,53.33
2022-12-22T17:59:26.178Z,53.25
2022-12-22T18:01:53.207Z,53.13
2022-12-22T18:04:20.031Z,53.17
2022-12-22T18:06:47.240Z,53.16
2022-12-22T18:09:23.610Z,53.00
2022-12-22T18:11:51.008Z,53.38
2022-12-22T18:14:23.903Z,53.23
2022-12-22T18:16:50.843Z,53.18
2022-12-22T18:19:17.745Z,53.16
2022-12-22T18:21:44.960Z,53.16
2022-12-22T18:24:19.306Z,53.17
2022-12-22T18:26:47.095Z,52.93
2022-12-22T18:29:17.883Z,53.11
2022-12-22T18:31:45.289Z,52.97
2022-12-22T18:34:12.535Z,53.00
2022-12-22T18:36:42.196Z,53.12
2022-12-22T18:39:19.376Z,53.43
2022-12-22T18:41:47.879Z,53.35
2022-12-22T18:44:18.779Z,53.10
2022-12-22T18:46:46.571Z,53.58
2022-12-22T18:49:13.412Z,53.70
2022-12-22T18:51:42.413Z,53.87
2022-12-22T18:54:20.544Z,54.13
2022-12-22T18:56:50.985Z,53.95
2022-12-22T18:59:31.499Z,54.10
2022-12-22T19:02:29.075Z,54.14
2022-12-22T19:04:57.085Z,54.10
2022-12-22T19:07:25.977Z,54.03
2022-12-22T19:09:52.775Z,54.16
2022-12-22T19:12:25.071Z,54.12
2022-12-22T19:14:55.607Z,54.10
2022-12-22T19:17:28.540Z,54.15
2022-12-22T19:19:56.333Z,53.74
2022-12-22T19:22:23.112Z,54.17
2022-12-22T19:24:51.402Z,53.98
2022-12-22T19:27:24.075Z,54.24
2022-12-22T19:30:00.833Z,53.95
2022-12-22T19:32:35.149Z,54.03
2022-12-22T19:35:02.032Z,54.51
2022-12-22T19:37:28.829Z,54.13
2022-12-22T19:39:55.616Z,53.97
2022-12-22T19:42:23.943Z,54.51
2022-12-22T19:44:50.745Z,54.18
2022-12-22T19:47:21.785Z,54.42
2022-12-22T19:49:48.611Z,54.42
2022-12-22T19:52:15.566Z,54.37
2022-12-22T19:54:42.390Z,54.47
2022-12-22T19:57:18.344Z,54.77
2022-12-22T19:59:48.803Z,54.83
2022-12-22T20:02:27.815Z,54.73
2022-12-22T20:04:56.975Z,54.61
2022-12-22T20:07:27.672Z,54.90
2022-12-22T20:09:56.933Z,54.91
2022-12-22T20:12:32.574Z,55.15
2022-12-22T20:15:00.772Z,54.82
2022-12-22T20:17:27.831Z,54.87
2022-12-22T20:19:54.574Z,55.09
2022-12-22T20:22:22.989Z,55.13
2022-12-22T20:24:50.200Z,55.12
2022-12-22T20:27:31.921Z,55.28
2022-12-22T20:29:58.748Z,55.19
2022-12-22T20:32:28.243Z,55.25
2022-12-22T20:34:55.570Z,55.36
2022-12-22T20:37:22.431Z,55.35
2022-12-22T20:39:49.257Z,55.19
2022-12-22T20:42:24.139Z,55.64
2022-12-22T20:45:03.344Z,55.50
2022-12-22T20:47:33.599Z,55.54
2022-12-22T20:50:00.636Z,55.48
2022-12-22T20:52:27.559Z,55.42
2022-12-22T20:54:55.761Z,55.71
2022-12-22T20:57:23.208Z,55.57
2022-12-22T20:59:55.727Z,55.58
2022-12-22T21:02:29.225Z,55.41
2022-12-22T21:04:56.458Z,55.53
2022-12-22T21:07:23.574Z,55.49
2022-12-22T21:09:50.427Z,55.51
2022-12-22T21:12:17.232Z,55.72
2022-12-22T21:14:44.702Z,55.72
2022-12-22T21:17:20.884Z,55.64
2022-12-22T21:19:47.714Z,55.58
2022-12-22T21:22:14.474Z,55.55
2022-12-22T21:24:41.688Z,55.33
2022-12-22T21:27:16.170Z,55.44
2022-12-22T21:29:43.003Z,55.57
2022-12-22T21:32:15.168Z,55.29
2022-12-22T21:34:42.346Z,55.40
2022-12-22T21:37:16.544Z,55.22
2022-12-22T21:39:44.611Z,55.16
2022-12-22T21:42:16.941Z,55.54
2022-12-22T21:44:46.786Z,55.32
2022-12-22T21:47:17.511Z,55.36
2022-12-22T21:49:44.318Z,55.19
2022-12-22T21:52:11.115Z,55.37
2022-12-22T21:54:37.889Z,55.57
2022-12-22T21:57:04.774Z,55.70
2022-12-22T21:59:31.609Z,55.78
2022-12-22T22:01:58.556Z,56.03
2022-12-22T22:04:25.502Z,55.96
2022-12-22T22:06:52.271Z,56.19
2022-12-22T22:09:19.021Z,56.19
2022-12-22T22:12:04.106Z,56.32
2022-12-22T22:14:30.882Z,56.23
2022-12-22T22:16:57.665Z,56.26
2022-12-22T22:19:24.473Z,56.00
2022-12-22T22:21:51.304Z,56.31
2022-12-22T22:24:18.170Z,56.24
2022-12-22T22:26:46.111Z,56.21
2022-12-22T22:29:13.175Z,56.18
2022-12-22T22:31:41.056Z,56.12
2022-12-22T22:34:08.093Z,56.04
2022-12-22T22:36:34.888Z,56.05
2022-12-22T22:39:01.678Z,56.15
2022-12-22T22:41:31.075Z,55.79
2022-12-22T22:43:57.896Z,55.88
2022-12-22T22:46:24.806Z,55.99
2022-12-22T22:48:51.607Z,56.14
2022-12-22T22:51:18.546Z,55.70
2022-12-22T22:53:45.365Z,56.04
2022-12-22T22:56:12.235Z,56.05
2022-12-22T22:58:39.049Z,56.04
2022-12-22T23:01:09.409Z,56.00
2022-12-22T23:03:36.951Z,56.18
2022-12-22T23:06:07.640Z,56.06
2022-12-22T23:08:35.125Z,56.27
2022-12-22T23:11:02.978Z,56.06
2022-12-22T23:13:30.021Z,56.10
2022-12-22T23:16:00.566Z,56.40
2022-12-22T23:18:29.074Z,56.31
2022-12-22T23:21:00.740Z,56.54
2022-12-22T23:23:28.745Z,56.54
2022-12-22T23:25:56.104Z,56.59
2022-12-22T23:28:23.376Z,56.67
2022-12-22T23:30:52.072Z,56.82
2022-12-22T23:33:20.300Z,56.84
2022-12-22T23:35:49.425Z,56.92
2022-12-22T23:38:18.238Z,56.99
2022-12-22T23:40:54.075Z,56.89
2022-12-22T23:43:21.960Z,56.92
2022-12-22T23:45:48.811Z,56.94
2022-12-22T23:48:15.653Z,57.08
2022-12-22T23:50:46.832Z,57.24
2022-12-22T23:53:15.244Z,57.13
2022-12-22T23:55:49.421Z,57.32
2022-12-22T23:58:17.189Z,57.16
